METARs

EEEI - Ämari Air Base

EEEI 251650Z VRB04KT CAVOK 14/03 Q1019 NOSIG

EEKA - Kärdla

EEKA 251450Z 03009KT CAVOK 11/04 Q1020

EEKE - Kuressaare

EEKE 252350Z AUTO 07004KT 9999NDV NSC 12/07 Q1017

EEPU - Pärnu

EEPU 251250Z 15005KT 080V230 CAVOK 22/M03 Q1019

EETN - Lennart Meri Tallinn

EETN 252350Z 02007KT CAVOK 13/02 Q1019

EETU - Tartu

EETU 252350Z 10003KT CAVOK 09/03 Q1019

Sign In

ATC Booking

currently no ATC Bookings...